Terminal Aerodrome Forecast
Issued by NWS King Salmon, AK

Home | Current Version | Previous Version | Text Only | Print | Product List | Glossary On
Versions: 1 2 3 4 5 6 7 8 9 10 11 12
000
FTAK31 PANC 231730
TAFAKN
TAF
PAKN 231730Z 2318/2418 VRB05KT P6SM VCSH SCT003 BKN120
      TEMPO 2318/2321 16006KT 1SM -SHSN BR OVC003
     FM232100 20007KT 6SM -SHSN BR SCT005 BKN025
     FM240700 16005KT P6SM SCT050 BKN100=

USA.gov is the U.S. government's official web portal to all federal, state and local government web resources and services.